Time;durP1;ratioP1;P1;durP2;ratioP2;P2;SDS_P1;SDS_P2;PMS_P1;PMS_P2;Temp;Humidity;BMP_temperature;BMP_pressure;BME280_temperature;BME280_humidity;BME280_pressure;Samples;Min_cycle;Max_cycle;Signal;HPM_P1;HPM_P2
2022/06/13 00:02:03;;;;;;;6.03;2.10;;;;;;;;;;5043317;28;20375;-45
2022/06/13 00:04:28;;;;;;;5.07;2.30;;;;;;;;;;5041450;28;20031;-44
2022/06/13 00:06:54;;;;;;;3.60;2.60;;;;;;;;;;5040556;28;20132;-44
2022/06/13 00:09:20;;;;;;;6.18;2.47;;;;;;;;;;5042789;28;20029;-45
2022/06/13 00:11:45;;;;;;;3.78;2.08;;;;;;;;;;5042437;28;20474;-44
2022/06/13 00:14:11;;;;;;;6.85;2.47;;;;;;;;;;5041334;28;20079;-46
2022/06/13 00:16:37;;;;;;;3.90;2.28;;;;;;;;;;5044869;28;20039;-45
2022/06/13 00:19:03;;;;;;;4.78;2.33;;;;;;;;;;5042871;28;20029;-44
2022/06/13 00:21:34;;;;;;;4.63;2.28;;;;;;;;;;5039559;28;20501;-47
2022/06/13 00:24:01;;;;;;;3.17;2.42;;;;;;;;;;5045065;28;20028;-48
2022/06/13 00:26:30;;;;;;;5.32;2.55;;;;;;;;;;5041796;28;20026;-44
2022/06/13 00:28:56;;;;;;;6.00;2.30;;;;;;;;;;5040303;28;20552;-44
2022/06/13 00:31:23;;;;;;;7.53;2.30;;;;;;;;;;5043441;28;20037;-45
2022/06/13 00:33:49;;;;;;;3.65;2.50;;;;;;;;;;5039623;28;20036;-45
2022/06/13 00:36:17;;;;;;;2.30;2.10;;;;;;;;;;5042863;28;20546;-44
2022/06/13 00:38:43;;;;;;;3.22;2.25;;;;;;;;;;5038620;28;20063;-44
2022/06/13 00:41:12;;;;;;;6.75;2.40;;;;;;;;;;5042829;28;20025;-45
2022/06/13 00:43:40;;;;;;;4.25;2.38;;;;;;;;;;5041974;28;20115;-44
2022/06/13 00:46:27;;;;;;;8.10;2.78;;;;;;;;;;5041016;28;20454;-45
2022/06/13 00:49:06;;;;;;;9.77;2.60;;;;;;;;;;5039737;28;20029;-44
2022/06/13 00:51:34;;;;;;;4.07;2.30;;;;;;;;;;5040345;28;20115;-46
2022/06/13 00:54:00;;;;;;;3.78;2.33;;;;;;;;;;5037294;28;20095;-47
2022/06/13 00:56:31;;;;;;;6.25;2.22;;;;;;;;;;5040274;28;20086;-45
2022/06/13 00:59:00;;;;;;;7.23;2.33;;;;;;;;;;5041987;28;20032;-46
2022/06/13 01:01:29;;;;;;;3.00;2.20;;;;;;;;;;5036667;28;20053;-44
2022/06/13 01:03:58;;;;;;;3.50;2.10;;;;;;;;;;5034746;28;20080;-44
2022/06/13 01:06:26;;;;;;;5.50;2.47;;;;;;;;;;5038198;28;20017;-44
2022/06/13 01:08:52;;;;;;;7.10;2.05;;;;;;;;;;5041978;28;20090;-44
2022/06/13 01:11:20;;;;;;;2.38;2.10;;;;;;;;;;5039497;28;20047;-44
2022/06/13 01:13:55;;;;;;;3.45;2.22;;;;;;;;;;5039549;28;20033;-45
2022/06/13 01:16:39;;;;;;;8.02;2.70;;;;;;;;;;5039753;28;20091;-45
2022/06/13 01:19:26;;;;;;;3.92;2.80;;;;;;;;;;5040401;28;20064;-45
2022/06/13 01:22:25;;;;;;;4.18;2.70;;;;;;;;;;5042778;28;20083;-45
2022/06/13 01:25:09;;;;;;;5.30;2.97;;;;;;;;;;5041302;28;20417;-47
2022/06/13 01:28:05;;;;;;;13.95;3.28;;;;;;;;;;5040223;28;20111;-44
2022/06/13 01:30:53;;;;;;;4.13;2.67;;;;;;;;;;5035201;28;20098;-44
2022/06/13 01:33:34;;;;;;;14.80;2.65;;;;;;;;;;5038661;28;20036;-45
2022/06/13 01:36:10;;;;;;;5.18;2.60;;;;;;;;;;5038651;28;20029;-47
2022/06/13 01:39:01;;;;;;;11.77;2.65;;;;;;;;;;5041309;28;20033;-45
2022/06/13 01:41:32;;;;;;;6.72;2.88;;;;;;;;;;5041258;28;20033;-46
2022/06/13 01:44:29;;;;;;;6.07;2.57;;;;;;;;;;5042059;28;20108;-44
2022/06/13 01:47:08;;;;;;;2.95;2.50;;;;;;;;;;5037326;28;20153;-47
2022/06/13 01:49:54;;;;;;;11.02;2.60;;;;;;;;;;5043399;28;20025;-44
2022/06/13 01:52:42;;;;;;;7.47;2.63;;;;;;;;;;5040948;28;20473;-49
2022/06/13 01:55:22;;;;;;;2.55;2.33;;;;;;;;;;5040182;28;20049;-44
2022/06/13 01:58:12;;;;;;;3.65;2.35;;;;;;;;;;5039473;28;20039;-47
2022/06/13 02:00:40;;;;;;;6.82;2.78;;;;;;;;;;5042060;28;20374;-45
2022/06/13 02:03:28;;;;;;;9.20;2.60;;;;;;;;;;5040303;28;20032;-43
2022/06/13 02:06:09;;;;;;;3.72;2.60;;;;;;;;;;5036430;28;20117;-44
2022/06/13 02:08:44;;;;;;;9.90;3.47;;;;;;;;;;5038962;28;20021;-44
2022/06/13 02:11:38;;;;;;;8.57;2.80;;;;;;;;;;5041920;28;20370;-44
2022/06/13 02:14:15;;;;;;;5.82;2.47;;;;;;;;;;5041494;28;20029;-44
2022/06/13 02:17:08;;;;;;;6.60;2.97;;;;;;;;;;5040208;28;20379;-44
2022/06/13 02:19:48;;;;;;;;;;;;;;;;;;5037474;28;20040;-45
2022/06/13 02:22:27;;;;;;;6.05;3.03;;;;;;;;;;5036805;28;19986;-44
2022/06/13 02:25:31;;;;;;;5.30;2.47;;;;;;;;;;5041459;28;20108;-46
2022/06/13 02:28:04;;;;;;;5.30;2.70;;;;;;;;;;5042407;28;20037;-45
2022/06/13 02:30:39;;;;;;;5.65;2.50;;;;;;;;;;5042639;28;20124;-44
2022/06/13 02:33:16;;;;;;;8.07;2.70;;;;;;;;;;5040174;28;20396;-44
2022/06/13 02:36:07;;;;;;;6.35;2.30;;;;;;;;;;5039962;28;20032;-44
2022/06/13 02:38:46;;;;;;;8.63;2.88;;;;;;;;;;5039506;28;20115;-44
2022/06/13 02:41:17;;;;;;;5.57;2.60;;;;;;;;;;5042448;28;20060;-45
2022/06/13 02:43:50;;;;;;;3.08;2.25;;;;;;;;;;5045554;28;20029;-47
2022/06/13 02:46:29;;;;;;;3.67;2.53;;;;;;;;;;5043818;28;20103;-46
2022/06/13 02:49:00;;;;;;;4.93;2.40;;;;;;;;;;5044884;28;20116;-48
2022/06/13 02:51:48;;;;;;;5.63;2.38;;;;;;;;;;5043231;28;20216;-43
2022/06/13 02:54:51;;;;;;;4.93;2.38;;;;;;;;;;5044366;28;20059;-45
2022/06/13 02:57:35;;;;;;;4.45;2.58;;;;;;;;;;5039541;28;20159;-44
2022/06/13 03:00:20;;;;;;;4.43;2.30;;;;;;;;;;5043420;28;20398;-47
2022/06/13 03:03:04;;;;;;;3.50;2.53;;;;;;;;;;5041730;28;20037;-48
2022/06/13 03:05:51;;;;;;;3.55;2.40;;;;;;;;;;5042567;28;20029;-45
2022/06/13 03:08:53;;;;;;;5.68;2.53;;;;;;;;;;5067110;28;20029;-44
2022/06/13 03:11:28;;;;;;;6.82;2.47;;;;;;;;;;5042947;28;20094;-44
2022/06/13 03:14:31;;;;;;;5.60;2.67;;;;;;;;;;5040826;28;20115;-44
2022/06/13 03:17:12;;;;;;;6.28;2.78;;;;;;;;;;5039922;28;20029;-44
2022/06/13 03:19:41;;;;;;;2.45;2.20;;;;;;;;;;5042661;28;20386;-45
2022/06/13 03:22:06;;;;;;;6.50;2.13;;;;;;;;;;5043783;28;20037;-44
2022/06/13 03:24:42;;;;;;;8.77;2.83;;;;;;;;;;5044713;28;20492;-47
2022/06/13 03:27:43;;;;;;;6.50;2.63;;;;;;;;;;5040532;28;20036;-44
2022/06/13 03:30:21;;;;;;;3.60;2.53;;;;;;;;;;5042509;28;20051;-45
2022/06/13 03:35:42;;;;;;;9.40;2.60;;;;;;;;;;5042207;28;20033;-44
2022/06/13 03:38:14;;;;;;;3.92;2.70;;;;;;;;;;5042846;28;20032;-45
2022/06/13 03:40:46;;;;;;;5.15;2.55;;;;;;;;;;5043132;28;20029;-46
2022/06/13 03:43:18;;;;;;;5.30;2.20;;;;;;;;;;5041851;28;20037;-45
2022/06/13 03:45:51;;;;;;;3.75;2.53;;;;;;;;;;5039866;28;20029;-44
2022/06/13 03:48:22;;;;;;;7.15;2.65;;;;;;;;;;5042668;28;20174;-44
2022/06/13 03:50:57;;;;;;;2.70;2.37;;;;;;;;;;5040274;28;20068;-48
2022/06/13 03:53:32;;;;;;;5.72;2.75;;;;;;;;;;5039148;28;20677;-44
2022/06/13 03:56:09;;;;;;;4.03;3.00;;;;;;;;;;5041374;28;20028;-45
2022/06/13 03:58:42;;;;;;;9.48;2.90;;;;;;;;;;5042939;28;20033;-43
2022/06/13 04:01:17;;;;;;;6.50;2.92;;;;;;;;;;5043834;28;20040;-45
2022/06/13 04:03:43;;;;;;;5.25;2.58;;;;;;;;;;5041331;28;20029;-44
2022/06/13 04:06:37;;;;;;;10.68;3.17;;;;;;;;;;5040684;28;20112;-46
2022/06/13 04:09:16;;;;;;;2.67;2.47;;;;;;;;;;5038906;28;20061;-45
2022/06/13 04:12:19;;;;;;;4.93;2.75;;;;;;;;;;5043585;28;20048;-45
2022/06/13 04:15:06;;;;;;;4.88;2.70;;;;;;;;;;5039940;28;20041;-46
2022/06/13 04:17:38;;;;;;;4.50;2.45;;;;;;;;;;5043099;28;20120;-45
2022/06/13 04:20:06;;;;;;;5.75;2.40;;;;;;;;;;5042802;28;20033;-48
2022/06/13 04:22:54;;;;;;;7.80;2.97;;;;;;;;;;5042840;28;20071;-44
2022/06/13 04:25:31;;;;;;;2.78;2.47;;;;;;;;;;5040051;28;20198;-44
2022/06/13 04:28:04;;;;;;;4.90;2.70;;;;;;;;;;5043338;28;20132;-49
2022/06/13 04:30:32;;;;;;;3.90;2.65;;;;;;;;;;5042405;28;20513;-44
2022/06/13 04:33:01;;;;;;;3.88;2.40;;;;;;;;;;5041604;28;20037;-46
2022/06/13 04:35:29;;;;;;;4.53;2.40;;;;;;;;;;5040949;28;20044;-44
2022/06/13 04:37:56;;;;;;;12.40;3.60;;;;;;;;;;5043104;28;20517;-48
2022/06/13 04:40:26;;;;;;;7.57;2.78;;;;;;;;;;5043514;28;20513;-44
2022/06/13 04:42:54;;;;;;;4.05;2.78;;;;;;;;;;5038157;28;20043;-46
2022/06/13 04:45:29;;;;;;;5.72;3.03;;;;;;;;;;5040881;28;20083;-42
2022/06/13 04:47:57;;;;;;;4.85;2.60;;;;;;;;;;5042787;28;20377;-44
2022/06/13 04:50:36;;;;;;;6.72;3.35;;;;;;;;;;5039752;28;20437;-46
2022/06/13 04:53:05;;;;;;;16.90;3.55;;;;;;;;;;5041322;28;20058;-49
2022/06/13 04:55:45;;;;;;;2.35;2.15;;;;;;;;;;5040831;28;20128;-47
2022/06/13 04:58:21;;;;;;;3.47;2.60;;;;;;;;;;5044896;28;20129;-44
2022/06/13 05:00:49;;;;;;;5.00;3.00;;;;;;;;;;5041161;28;20033;-44
2022/06/13 05:03:24;;;;;;;13.23;2.90;;;;;;;;;;5040909;28;20123;-45
2022/06/13 05:05:55;;;;;;;5.03;2.30;;;;;;;;;;5037368;28;20115;-47
2022/06/13 05:08:25;;;;;;;7.93;3.45;;;;;;;;;;5034727;28;20155;-44
2022/06/13 05:10:57;;;;;;;7.55;2.63;;;;;;;;;;5031924;28;20086;-44
2022/06/13 05:13:24;;;;;;;6.35;2.58;;;;;;;;;;5040057;28;20040;-44
2022/06/13 05:15:58;;;;;;;5.35;2.53;;;;;;;;;;5040122;28;20116;-46
2022/06/13 05:18:38;;;;;;;9.85;2.70;;;;;;;;;;5040446;28;20079;-44
2022/06/13 05:21:13;;;;;;;8.93;2.85;;;;;;;;;;5035224;28;20063;-44
2022/06/13 05:23:56;;;;;;;6.60;2.60;;;;;;;;;;5034946;28;20473;-45
2022/06/13 05:26:28;;;;;;;10.32;2.92;;;;;;;;;;5026844;28;20116;-49
2022/06/13 05:29:00;;;;;;;8.15;3.03;;;;;;;;;;5029093;28;20045;-44
2022/06/13 05:31:27;;;;;;;7.13;2.90;;;;;;;;;;5032080;28;20134;-45
2022/06/13 05:33:54;;;;;;;6.10;3.00;;;;;;;;;;5033211;28;20107;-44
2022/06/13 05:36:23;;;;;;;8.57;2.78;;;;;;;;;;5040455;28;20037;-44
2022/06/13 05:38:54;;;;;;;6.80;3.00;;;;;;;;;;5037755;28;20057;-46
2022/06/13 05:41:19;;;;;;;14.95;4.00;;;;;;;;;;5032567;28;20034;-47
2022/06/13 05:43:46;;;;;;;7.20;3.15;;;;;;;;;;5037219;28;20102;-44
2022/06/13 05:46:31;;;;;;;18.75;3.53;;;;;;;;;;5037766;28;20148;-44
2022/06/13 05:48:57;;;;;;;12.35;3.05;;;;;;;;;;5036702;28;20040;-45
2022/06/13 05:51:23;;;;;;;4.40;3.03;;;;;;;;;;5032252;28;20045;-44
2022/06/13 05:53:49;;;;;;;13.57;3.08;;;;;;;;;;5036952;28;20037;-45
2022/06/13 05:56:15;;;;;;;10.00;3.00;;;;;;;;;;5036525;28;20033;-45
2022/06/13 05:58:41;;;;;;;14.57;3.10;;;;;;;;;;5041533;28;20030;-47
2022/06/13 06:01:07;;;;;;;7.30;2.78;;;;;;;;;;5041507;28;20036;-45
2022/06/13 06:03:33;;;;;;;7.78;3.00;;;;;;;;;;5042406;28;20040;-44
2022/06/13 06:06:01;;;;;;;5.93;2.47;;;;;;;;;;5042155;28;20048;-43
2022/06/13 06:08:30;;;;;;;4.68;2.55;;;;;;;;;;5040825;28;20028;-44
2022/06/13 06:10:58;;;;;;;7.90;2.33;;;;;;;;;;5043687;28;20039;-47
2022/06/13 06:13:25;;;;;;;5.60;2.50;;;;;;;;;;5047347;28;20013;-45
2022/06/13 06:15:52;;;;;;;8.88;2.58;;;;;;;;;;5043649;28;20040;-45
2022/06/13 06:18:19;;;;;;;9.00;2.88;;;;;;;;;;5042464;28;20493;-44
2022/06/13 06:20:45;;;;;;;12.23;2.50;;;;;;;;;;5039628;28;20055;-44
2022/06/13 06:23:12;;;;;;;11.55;2.63;;;;;;;;;;5039973;28;20478;-46
2022/06/13 06:25:38;;;;;;;5.03;2.53;;;;;;;;;;5041280;28;20432;-44
2022/06/13 06:28:04;;;;;;;2.85;2.45;;;;;;;;;;5045710;28;20041;-45
2022/06/13 06:30:31;;;;;;;6.95;2.72;;;;;;;;;;5036499;28;20401;-45
2022/06/13 06:32:57;;;;;;;9.65;2.47;;;;;;;;;;5039182;28;20174;-47
2022/06/13 06:35:24;;;;;;;7.35;2.70;;;;;;;;;;5042862;28;20055;-48
2022/06/13 06:37:52;;;;;;;2.40;2.15;;;;;;;;;;5041319;28;20044;-46
2022/06/13 06:40:20;;;;;;;5.10;2.25;;;;;;;;;;5042391;28;20162;-45
2022/06/13 06:42:46;;;;;;;7.40;2.42;;;;;;;;;;5045293;28;20551;-46
2022/06/13 06:45:13;;;;;;;8.13;2.63;;;;;;;;;;5045114;28;20112;-44
2022/06/13 06:47:39;;;;;;;3.75;2.42;;;;;;;;;;5047004;28;20055;-44
2022/06/13 06:50:08;;;;;;;6.30;2.60;;;;;;;;;;5044583;28;20485;-44
2022/06/13 06:52:34;;;;;;;9.55;2.35;;;;;;;;;;5036111;28;20045;-44
2022/06/13 07:00:27;;;;;;;7.10;2.70;;;;;;;;;;5039388;28;20035;-45
2022/06/13 07:02:53;;;;;;;6.45;2.40;;;;;;;;;;5032676;28;20025;-45
2022/06/13 07:05:19;;;;;;;6.00;2.35;;;;;;;;;;5035127;28;20037;-45
2022/06/13 07:07:44;;;;;;;4.35;2.53;;;;;;;;;;5037430;28;20164;-44
2022/06/13 07:10:12;;;;;;;6.38;2.15;;;;;;;;;;5039798;28;20037;-44
2022/06/13 07:12:38;;;;;;;5.85;2.58;;;;;;;;;;5040851;28;20121;-48
2022/06/13 07:15:04;;;;;;;10.80;2.67;;;;;;;;;;5039255;28;20169;-48
2022/06/13 07:17:30;;;;;;;8.13;2.05;;;;;;;;;;5040027;28;20466;-44
2022/06/13 07:19:56;;;;;;;8.68;2.35;;;;;;;;;;5044173;28;20069;-45
2022/06/13 07:22:23;;;;;;;8.65;2.30;;;;;;;;;;5034013;28;20083;-47
2022/06/13 07:24:49;;;;;;;3.80;2.30;;;;;;;;;;5035601;28;20033;-44
2022/06/13 07:27:15;;;;;;;6.80;2.30;;;;;;;;;;5038722;28;20099;-45
2022/06/13 07:29:42;;;;;;;4.93;1.65;;;;;;;;;;5039772;28;20517;-48
2022/06/13 07:32:11;;;;;;;5.90;1.98;;;;;;;;;;5032752;28;20037;-45
2022/06/13 07:34:39;;;;;;;4.38;2.13;;;;;;;;;;5033219;28;20441;-45
2022/06/13 07:37:09;;;;;;;5.82;1.83;;;;;;;;;;5041556;28;20117;-45
2022/06/13 07:39:34;;;;;;;4.07;2.17;;;;;;;;;;5042587;28;20040;-44
2022/06/13 07:42:02;;;;;;;5.63;2.40;;;;;;;;;;5041298;28;20024;-49
2022/06/13 07:44:32;;;;;;;5.95;2.15;;;;;;;;;;5042427;28;20509;-46
2022/06/13 07:46:59;;;;;;;6.57;2.10;;;;;;;;;;5042568;28;20478;-46
2022/06/13 07:49:24;;;;;;;4.25;2.10;;;;;;;;;;5041973;28;20381;-44
2022/06/13 07:51:50;;;;;;;5.47;2.10;;;;;;;;;;5041770;28;20052;-44
2022/06/13 07:54:17;;;;;;;7.25;2.33;;;;;;;;;;5042239;28;20363;-46
2022/06/13 07:56:43;;;;;;;2.80;1.98;;;;;;;;;;5041732;28;20028;-44
2022/06/13 07:59:15;;;;;;;6.20;2.20;;;;;;;;;;5043739;28;20086;-44
2022/06/13 08:01:41;;;;;;;;;;;;;;;;;;5042299;28;20126;-47
2022/06/13 08:04:06;;;;;;;7.45;2.33;;;;;;;;;;5044169;28;19940;-44
2022/06/13 08:06:32;;;;;;;5.68;1.90;;;;;;;;;;5041787;28;20377;-45
2022/06/13 08:08:58;;;;;;;5.05;2.25;;;;;;;;;;5037608;28;20027;-46
2022/06/13 08:11:34;;;;;;;8.77;2.40;;;;;;;;;;5043313;28;20384;-45
2022/06/13 08:14:00;;;;;;;5.75;2.08;;;;;;;;;;5042881;28;20524;-45
2022/06/13 08:16:27;;;;;;;5.30;2.10;;;;;;;;;;5045092;28;20071;-44
2022/06/13 08:18:53;;;;;;;2.97;2.03;;;;;;;;;;5043741;28;20033;-45
2022/06/13 08:21:19;;;;;;;5.68;2.20;;;;;;;;;;5042529;28;20086;-44
2022/06/13 08:23:45;;;;;;;6.65;2.17;;;;;;;;;;5039447;28;20049;-46
2022/06/13 08:26:11;;;;;;;2.67;2.00;;;;;;;;;;5041648;28;20513;-45
2022/06/13 08:28:37;;;;;;;7.28;2.30;;;;;;;;;;5043207;28;20033;-45
2022/06/13 08:31:11;;;;;;;5.78;1.98;;;;;;;;;;5042656;28;20040;-46
2022/06/13 08:33:37;;;;;;;7.47;2.30;;;;;;;;;;5037534;28;20078;-45
2022/06/13 08:36:05;;;;;;;16.17;2.47;;;;;;;;;;5038162;28;20727;-45
2022/06/13 08:38:30;;;;;;;11.25;2.60;;;;;;;;;;5040585;28;20425;-44
2022/06/13 08:41:01;;;;;;;9.25;2.38;;;;;;;;;;5041799;28;20037;-46
2022/06/13 08:44:00;;;;;;;4.80;1.95;;;;;;;;;;5041641;28;20374;-46
2022/06/13 08:46:39;;;;;;;6.00;2.47;;;;;;;;;;5041639;28;20025;-44
2022/06/13 08:49:17;;;;;;;7.20;2.10;;;;;;;;;;5041888;28;20048;-44
2022/06/13 08:51:52;;;;;;;7.68;2.38;;;;;;;;;;5041118;28;20119;-49
2022/06/13 08:54:26;;;;;;;8.77;2.50;;;;;;;;;;5038935;28;20139;-44
2022/06/13 08:56:53;;;;;;;2.90;2.22;;;;;;;;;;5038051;28;20055;-45
2022/06/13 08:59:34;;;;;;;4.35;2.20;;;;;;;;;;5041406;28;20036;-45
2022/06/13 09:02:10;;;;;;;6.93;2.17;;;;;;;;;;5041219;28;20029;-48
2022/06/13 09:05:01;;;;;;;6.13;2.30;;;;;;;;;;5039064;28;20037;-52
2022/06/13 09:08:05;;;;;;;7.43;2.20;;;;;;;;;;5037666;28;20028;-49
2022/06/13 09:10:38;;;;;;;7.65;2.63;;;;;;;;;;5038594;28;20032;-48
2022/06/13 09:13:27;;;;;;;3.47;2.35;;;;;;;;;;5040185;28;20537;-50
2022/06/13 09:16:26;;;;;;;4.90;2.33;;;;;;;;;;5041948;28;20052;-52
2022/06/13 09:19:14;;;;;;;4.43;2.00;;;;;;;;;;5040352;28;20513;-48
2022/06/13 09:21:39;;;;;;;6.85;2.20;;;;;;;;;;5035200;28;20052;-46
2022/06/13 09:24:27;;;;;;;4.75;2.20;;;;;;;;;;5037585;28;20040;-52
2022/06/13 09:27:18;;;;;;;6.95;2.10;;;;;;;;;;5041765;28;20041;-48
2022/06/13 09:29:51;;;;;;;9.32;2.53;;;;;;;;;;5036534;28;20409;-47
2022/06/13 09:32:23;;;;;;;6.90;2.40;;;;;;;;;;5038572;28;20037;-45
2022/06/13 09:34:54;;;;;;;8.40;2.35;;;;;;;;;;5038604;28;20041;-45
2022/06/13 09:37:54;;;;;;;15.02;2.55;;;;;;;;;;5040875;28;20175;-47
2022/06/13 09:40:39;;;;;;;11.10;2.30;;;;;;;;;;5045735;28;20100;-45
2022/06/13 09:43:25;;;;;;;6.70;2.17;;;;;;;;;;5038414;28;20033;-46
2022/06/13 09:45:50;;;;;;;10.60;2.47;;;;;;;;;;5040774;28;20449;-46
2022/06/13 09:48:29;;;;;;;6.15;2.30;;;;;;;;;;5039371;28;20032;-47
2022/06/13 09:51:15;;;;;;;13.32;2.65;;;;;;;;;;5038179;28;20072;-48
2022/06/13 09:53:54;;;;;;;2.47;1.92;;;;;;;;;;5039943;28;20028;-46
2022/06/13 09:56:32;;;;;;;7.28;2.17;;;;;;;;;;5041224;28;20120;-49
2022/06/13 09:59:19;;;;;;;4.63;1.98;;;;;;;;;;5042109;28;20041;-47
2022/06/13 10:01:57;;;;;;;7.38;2.30;;;;;;;;;;5040621;28;20577;-50
2022/06/13 10:04:41;;;;;;;7.20;2.15;;;;;;;;;;5039932;28;20028;-45
2022/06/13 10:07:16;;;;;;;8.80;2.40;;;;;;;;;;5043377;28;20041;-49
2022/06/13 10:09:47;;;;;;;5.45;2.15;;;;;;;;;;5035478;28;20045;-46
2022/06/13 10:12:13;;;;;;;7.22;2.17;;;;;;;;;;5039038;28;20104;-50
2022/06/13 10:14:44;;;;;;;11.18;2.08;;;;;;;;;;5040852;28;20183;-44
2022/06/13 10:17:16;;;;;;;10.38;2.08;;;;;;;;;;5038472;28;20459;-45
2022/06/13 10:19:54;;;;;;;6.40;1.92;;;;;;;;;;5041984;28;20041;-49
2022/06/13 10:22:35;;;;;;;2.08;1.77;;;;;;;;;;5041180;28;20489;-48
2022/06/13 10:25:01;;;;;;;6.60;1.60;;;;;;;;;;5038790;28;20033;-45
2022/06/13 10:27:45;;;;;;;5.82;1.85;;;;;;;;;;5040094;28;20090;-46
2022/06/13 10:30:35;;;;;;;2.70;1.50;;;;;;;;;;5037948;28;20436;-49
2022/06/13 10:33:28;;;;;;;6.20;2.10;;;;;;;;;;5038752;28;20061;-47
2022/06/13 10:36:05;;;;;;;6.18;2.00;;;;;;;;;;5039694;28;20079;-52
2022/06/13 10:39:03;;;;;;;8.35;2.38;;;;;;;;;;5036941;28;20486;-48
2022/06/13 10:41:30;;;;;;;3.60;1.77;;;;;;;;;;5039010;28;20055;-48
2022/06/13 10:43:57;;;;;;;5.57;1.90;;;;;;;;;;5039834;28;20099;-46
2022/06/13 10:46:23;;;;;;;4.90;2.13;;;;;;;;;;5042303;28;20037;-46
2022/06/13 10:48:55;;;;;;;6.80;1.85;;;;;;;;;;5039634;28;20036;-47
2022/06/13 10:51:22;;;;;;;2.47;1.60;;;;;;;;;;5040135;28;20102;-45
2022/06/13 10:54:12;;;;;;;10.75;1.52;;;;;;;;;;5041164;28;20381;-47
2022/06/13 10:56:42;;;;;;;3.90;1.70;;;;;;;;;;5042268;28;20074;-52
2022/06/13 10:59:21;;;;;;;4.57;1.90;;;;;;;;;;5038128;28;20029;-45
2022/06/13 11:02:00;;;;;;;6.63;1.95;;;;;;;;;;5042671;28;20087;-45
2022/06/13 11:04:31;;;;;;;4.88;1.77;;;;;;;;;;5044014;28;20028;-52
2022/06/13 11:07:01;;;;;;;2.30;1.50;;;;;;;;;;5047116;28;20090;-51
2022/06/13 11:09:37;;;;;;;5.53;1.70;;;;;;;;;;5041701;28;20040;-50
2022/06/13 11:12:16;;;;;;;7.70;1.55;;;;;;;;;;5043813;28;20991;-46
2022/06/13 11:23:47;;;;;;;4.70;2.40;;;;;;;;;;5040447;28;20355;-50
2022/06/13 11:28:58;;;;;;;18.23;2.60;;;;;;;;;;5044182;28;20108;-47
2022/06/13 11:31:26;;;;;;;4.22;1.67;;;;;;;;;;5043891;28;20108;-47
2022/06/13 11:33:53;;;;;;;6.72;1.63;;;;;;;;;;5046230;28;20136;-47
2022/06/13 11:36:26;;;;;;;5.43;1.40;;;;;;;;;;5041861;28;20096;-49
2022/06/13 11:39:05;;;;;;;5.20;1.55;;;;;;;;;;5042357;28;20367;-50
2022/06/13 11:41:44;;;;;;;7.80;1.90;;;;;;;;;;5038281;28;20032;-48
2022/06/13 11:44:12;;;;;;;1.75;1.33;;;;;;;;;;5040049;28;20029;-47
2022/06/13 11:46:53;;;;;;;6.22;1.73;;;;;;;;;;5042603;28;20025;-46
2022/06/13 11:49:32;;;;;;;6.88;1.65;;;;;;;;;;5044185;28;20033;-48
2022/06/13 11:51:58;;;;;;;4.03;1.80;;;;;;;;;;5044750;28;20041;-49
2022/06/13 11:54:38;;;;;;;3.45;1.80;;;;;;;;;;5040801;28;20893;-49
2022/06/13 11:57:17;;;;;;;3.42;1.67;;;;;;;;;;5040387;28;20038;-49
2022/06/13 12:00:07;;;;;;;8.65;1.50;;;;;;;;;;5044036;28;20044;-52
2022/06/13 12:02:39;;;;;;;5.93;1.60;;;;;;;;;;5041709;28;20057;-46
2022/06/13 12:05:23;;;;;;;11.13;1.73;;;;;;;;;;5043061;28;20509;-47
2022/06/13 12:07:49;;;;;;;5.40;1.85;;;;;;;;;;5042685;28;20037;-46
2022/06/13 12:10:25;;;;;;;1.63;1.33;;;;;;;;;;5041428;28;20021;-50
2022/06/13 12:12:51;;;;;;;6.30;1.63;;;;;;;;;;5041738;28;20470;-49
2022/06/13 12:15:19;;;;;;;7.07;2.00;;;;;;;;;;5034743;28;20090;-48
2022/06/13 12:17:55;;;;;;;4.68;1.73;;;;;;;;;;5043100;28;20037;-48
2022/06/13 12:20:38;;;;;;;8.07;1.75;;;;;;;;;;5043081;28;20115;-52
2022/06/13 12:23:09;;;;;;;11.30;1.60;;;;;;;;;;5043424;28;20424;-47
2022/06/13 12:25:51;;;;;;;3.58;1.80;;;;;;;;;;5042555;28;20017;-46
2022/06/13 12:28:23;;;;;;;2.40;1.67;;;;;;;;;;5041260;28;20489;-52
2022/06/13 12:31:01;;;;;;;6.78;1.90;;;;;;;;;;5040130;28;20050;-49
2022/06/13 12:33:45;;;;;;;1.85;1.60;;;;;;;;;;5043843;28;20032;-49
2022/06/13 12:36:26;;;;;;;2.53;1.48;;;;;;;;;;5042715;28;20470;-47
2022/06/13 12:39:16;;;;;;;5.50;1.80;;;;;;;;;;5042299;28;20037;-46
2022/06/13 12:42:05;;;;;;;13.73;2.00;;;;;;;;;;5036024;28;20073;-46
2022/06/13 12:45:09;;;;;;;8.02;2.08;;;;;;;;;;5039172;28;20034;-49
2022/06/13 12:47:53;;;;;;;8.45;1.70;;;;;;;;;;4994510;28;20073;-49
2022/06/13 12:50:30;;;;;;;8.75;1.88;;;;;;;;;;4994181;28;20826;-49
2022/06/13 12:53:16;;;;;;;5.00;1.60;;;;;;;;;;4997355;28;20056;-51
2022/06/13 12:56:13;;;;;;;8.23;1.67;;;;;;;;;;4996372;28;20038;-51
2022/06/13 12:59:29;;;;;;;19.30;2.72;;;;;;;;;;4962577;28;20053;-49
2022/06/13 13:02:32;;;;;;;11.80;2.40;;;;;;;;;;4906908;29;20532;-46
2022/06/13 13:05:17;;;;;;;9.20;1.50;;;;;;;;;;4906265;29;20123;-48
2022/06/13 13:08:02;;;;;;;12.18;2.00;;;;;;;;;;4905322;29;20044;-48
2022/06/13 13:10:50;;;;;;;13.52;1.85;;;;;;;;;;4907356;29;20603;-46
2022/06/13 13:13:31;;;;;;;7.85;1.92;;;;;;;;;;4906396;29;20032;-47
2022/06/13 13:16:03;;;;;;;5.67;2.10;;;;;;;;;;4908417;29;20044;-51
2022/06/13 13:18:54;;;;;;;14.45;2.08;;;;;;;;;;4906703;29;20803;-48
2022/06/13 13:21:35;;;;;;;16.40;1.70;;;;;;;;;;4906441;29;20259;-45
2022/06/13 13:24:06;;;;;;;;;;;;;;;;;;4917729;28;20122;-47
2022/06/13 13:26:49;;;;;;;6.63;1.23;;;;;;;;;;4942324;28;19926;-53
2022/06/13 13:29:31;;;;;;;5.45;1.85;;;;;;;;;;4946729;28;20070;-46
2022/06/13 13:32:08;;;;;;;4.50;1.88;;;;;;;;;;4947815;28;20112;-46
2022/06/13 13:34:52;;;;;;;3.05;1.52;;;;;;;;;;4946568;28;20043;-48
2022/06/13 13:37:27;;;;;;;4.05;1.80;;;;;;;;;;5014657;28;20112;-48
2022/06/13 13:40:05;;;;;;;5.03;2.00;;;;;;;;;;5039409;28;20029;-46
2022/06/13 13:42:44;;;;;;;5.35;1.83;;;;;;;;;;5037115;28;20085;-45
2022/06/13 13:45:25;;;;;;;7.65;1.73;;;;;;;;;;5039661;28;20474;-45
2022/06/13 13:47:57;;;;;;;3.63;1.70;;;;;;;;;;5039326;28;20029;-45
2022/06/13 13:50:27;;;;;;;5.82;2.15;;;;;;;;;;5036850;28;20033;-46
2022/06/13 13:53:00;;;;;;;4.68;1.83;;;;;;;;;;5042298;28;20047;-47
2022/06/13 13:55:37;;;;;;;3.83;1.80;;;;;;;;;;5040869;28;20025;-46
2022/06/13 13:58:15;;;;;;;4.70;2.17;;;;;;;;;;5044069;28;20601;-46
2022/06/13 14:00:54;;;;;;;3.42;1.63;;;;;;;;;;5039897;28;20033;-52
2022/06/13 14:03:44;;;;;;;6.32;1.83;;;;;;;;;;5041062;28;20029;-43
2022/06/13 14:06:21;;;;;;;6.03;1.60;;;;;;;;;;5040347;28;20021;-48
2022/06/13 14:08:48;;;;;;;3.83;1.75;;;;;;;;;;5036438;28;20120;-48
2022/06/13 14:11:14;;;;;;;8.68;1.75;;;;;;;;;;5039108;28;20584;-51
2022/06/13 14:14:00;;;;;;;7.95;1.73;;;;;;;;;;5035218;28;20204;-51
2022/06/13 14:16:26;;;;;;;6.63;1.80;;;;;;;;;;5038477;28;20102;-45
2022/06/13 14:19:12;;;;;;;4.38;2.13;;;;;;;;;;5039317;28;20477;-50
2022/06/13 14:21:56;;;;;;;13.65;2.13;;;;;;;;;;5040474;28;20027;-51
2022/06/13 14:24:24;;;;;;;10.10;1.83;;;;;;;;;;5037836;28;20389;-47
2022/06/13 14:27:00;;;;;;;7.28;1.85;;;;;;;;;;5040579;28;20033;-48
2022/06/13 14:29:35;;;;;;;5.25;1.63;;;;;;;;;;5042043;28;20404;-48
2022/06/13 14:32:08;;;;;;;6.65;2.45;;;;;;;;;;5043668;28;20048;-50
2022/06/13 14:37:50;;;;;;;7.53;1.70;;;;;;;;;;5043026;28;20570;-51
2022/06/13 14:40:35;;;;;;;5.97;2.00;;;;;;;;;;5046141;28;20422;-48
2022/06/13 14:43:21;;;;;;;7.35;2.17;;;;;;;;;;5044580;28;20037;-46
2022/06/13 14:45:51;;;;;;;5.85;2.33;;;;;;;;;;5045659;28;20041;-49
2022/06/13 14:48:27;;;;;;;2.95;1.60;;;;;;;;;;5043609;28;20029;-52
2022/06/13 14:50:56;;;;;;;9.85;2.28;;;;;;;;;;5044477;28;20025;-46
2022/06/13 14:53:36;;;;;;;8.00;1.70;;;;;;;;;;5041814;28;20075;-48
2022/06/13 14:56:08;;;;;;;3.05;1.70;;;;;;;;;;5041921;28;20037;-47
2022/06/13 14:58:43;;;;;;;3.60;2.20;;;;;;;;;;5046853;28;20098;-45
2022/06/13 15:01:30;;;;;;;5.35;2.13;;;;;;;;;;5044027;28;20024;-47
2022/06/13 15:04:06;;;;;;;12.27;2.40;;;;;;;;;;5043357;28;20029;-51
2022/06/13 15:06:37;;;;;;;5.32;2.13;;;;;;;;;;5041405;28;20097;-49
2022/06/13 15:09:17;;;;;;;9.50;2.13;;;;;;;;;;5043715;28;20041;-48
2022/06/13 15:11:52;;;;;;;4.30;2.08;;;;;;;;;;5043328;28;20084;-46
2022/06/13 15:14:21;;;;;;;6.95;2.33;;;;;;;;;;5044141;28;20052;-47
2022/06/13 15:16:49;;;;;;;6.47;2.00;;;;;;;;;;5043380;28;20033;-48
2022/06/13 15:19:16;;;;;;;12.98;2.20;;;;;;;;;;5046550;28;20025;-46
2022/06/13 15:21:57;;;;;;;7.03;1.80;;;;;;;;;;5041292;28;20044;-48
2022/06/13 15:24:23;;;;;;;;;;;;;;;;;;5044103;28;20025;-48
2022/06/13 15:27:01;;;;;;;3.92;1.85;;;;;;;;;;5041606;28;20254;-48
2022/06/13 15:29:27;;;;;;;4.05;1.90;;;;;;;;;;5044510;28;20049;-48
2022/06/13 15:32:21;;;;;;;4.03;1.80;;;;;;;;;;5038601;28;20036;-45
2022/06/13 15:35:00;;;;;;;5.82;2.42;;;;;;;;;;5044432;28;20068;-47
2022/06/13 15:37:36;;;;;;;6.45;1.80;;;;;;;;;;5044812;28;20039;-46
2022/06/13 15:40:03;;;;;;;8.07;1.90;;;;;;;;;;5042325;28;20037;-48
2022/06/13 15:42:32;;;;;;;6.32;2.20;;;;;;;;;;5044626;28;20105;-48
2022/06/13 15:45:02;;;;;;;7.80;2.33;;;;;;;;;;5037759;28;20035;-46
2022/06/13 15:47:32;;;;;;;8.02;2.10;;;;;;;;;;5042961;28;20501;-46
2022/06/13 15:50:01;;;;;;;10.77;2.00;;;;;;;;;;5040884;28;20049;-46
2022/06/13 15:52:36;;;;;;;6.20;2.10;;;;;;;;;;5039715;28;20035;-46
2022/06/13 15:55:05;;;;;;;5.95;1.85;;;;;;;;;;5044858;28;20098;-46